Time;durP1;ratioP1;P1;durP2;ratioP2;P2;SDS_P1;SDS_P2;PMS_P1;PMS_P2;Temp;Humidity;BMP_temperature;BMP_pressure;BME280_temperature;BME280_humidity;BME280_pressure;Samples;Min_cycle;Max_cycle;Signal;HPM_P1;HPM_P2
2021/11/14 00:00:56;;;;;;;3.30;2.50;;;;;;;;;;4593711;27;20024;-58
2021/11/14 00:03:07;;;;;;;3.85;2.53;;;;;;;;;;4586548;27;20987;-58
2021/11/14 00:05:18;;;;;;;3.13;2.30;;;;;;;;;;4585472;27;20161;-58
2021/11/14 00:07:28;;;;;;;3.20;2.47;;;;;;;;;;4586956;27;20027;-58
2021/11/14 00:09:39;;;;;;;3.33;2.47;;;;;;;;;;4583872;27;21641;-58
2021/11/14 00:11:50;;;;;;;3.10;2.40;;;;;;;;;;4590334;27;20383;-58
2021/11/14 00:14:01;;;;;;;3.73;2.60;;;;;;;;;;4584654;27;20254;-58
2021/11/14 00:16:14;;;;;;;3.38;2.70;;;;;;;;;;4583210;27;20034;-59
2021/11/14 00:18:24;;;;;;;2.80;2.35;;;;;;;;;;4582670;27;20571;-57
2021/11/14 00:20:36;;;;;;;3.57;2.60;;;;;;;;;;4586340;27;20242;-58
2021/11/14 00:22:46;;;;;;;3.55;2.80;;;;;;;;;;4590730;27;20027;-58
2021/11/14 00:25:00;;;;;;;2.73;2.43;;;;;;;;;;4582579;27;20020;-58
2021/11/14 00:27:10;;;;;;;3.38;2.80;;;;;;;;;;4585449;27;20059;-57
2021/11/14 00:29:22;;;;;;;3.65;2.90;;;;;;;;;;4584360;27;20028;-58
2021/11/14 00:31:33;;;;;;;3.10;2.50;;;;;;;;;;4586440;27;20932;-57
2021/11/14 00:33:46;;;;;;;3.08;2.30;;;;;;;;;;4586532;27;20024;-58
2021/11/14 00:35:56;;;;;;;3.55;2.67;;;;;;;;;;4589831;27;20036;-58
2021/11/14 00:38:06;;;;;;;4.13;2.70;;;;;;;;;;4590382;27;20032;-60
2021/11/14 00:40:26;;;;;;;2.80;2.40;;;;;;;;;;4584256;27;20024;-58
2021/11/14 00:42:37;;;;;;;2.92;2.35;;;;;;;;;;4583895;27;20024;-59
2021/11/14 00:44:47;;;;;;;3.00;2.50;;;;;;;;;;4585450;27;20388;-58
2021/11/14 00:46:58;;;;;;;4.17;2.90;;;;;;;;;;4585619;27;20066;-58
2021/11/14 00:49:08;;;;;;;3.50;2.50;;;;;;;;;;4584524;27;34271;-57
2021/11/14 00:51:28;;;;;;;2.97;2.33;;;;;;;;;;4571271;27;20027;-57
2021/11/14 00:53:39;;;;;;;3.67;2.60;;;;;;;;;;4584542;27;20146;-57
2021/11/14 00:55:49;;;;;;;3.80;2.50;;;;;;;;;;4588875;27;20027;-57
2021/11/14 00:58:00;;;;;;;2.73;2.13;;;;;;;;;;4584746;27;28680;-58
2021/11/14 01:00:15;;;;;;;3.63;2.47;;;;;;;;;;4589246;27;20031;-57
2021/11/14 01:02:26;;;;;;;2.72;2.20;;;;;;;;;;4585104;27;20019;-58
2021/11/14 01:04:36;;;;;;;2.90;2.50;;;;;;;;;;4583672;27;20032;-61
2021/11/14 01:06:47;;;;;;;3.33;2.50;;;;;;;;;;4589694;27;20634;-57
2021/11/14 01:08:57;;;;;;;3.27;2.30;;;;;;;;;;4586288;27;20052;-57
2021/11/14 01:11:09;;;;;;;2.83;2.20;;;;;;;;;;4585932;27;20039;-57
2021/11/14 01:13:20;;;;;;;3.53;2.55;;;;;;;;;;4584805;27;20673;-57
2021/11/14 01:15:31;;;;;;;2.80;2.10;;;;;;;;;;4584422;27;20100;-57
2021/11/14 01:17:42;;;;;;;3.10;2.40;;;;;;;;;;4589531;27;20039;-57
2021/11/14 01:19:52;;;;;;;3.20;2.53;;;;;;;;;;4583561;27;20019;-58
2021/11/14 01:22:03;;;;;;;2.53;2.17;;;;;;;;;;4581610;27;20028;-58
2021/11/14 01:24:15;;;;;;;2.80;2.23;;;;;;;;;;4583530;27;20032;-57
2021/11/14 01:26:27;;;;;;;2.53;2.00;;;;;;;;;;4590280;27;20238;-57
2021/11/14 01:28:38;;;;;;;2.75;2.40;;;;;;;;;;4586163;27;20023;-57
2021/11/14 01:30:51;;;;;;;2.40;1.97;;;;;;;;;;4589305;27;20031;-58
2021/11/14 01:33:04;;;;;;;2.60;2.05;;;;;;;;;;4585685;27;20103;-59
2021/11/14 01:35:15;;;;;;;2.30;2.00;;;;;;;;;;4584996;27;20093;-57
2021/11/14 01:37:25;;;;;;;2.35;2.00;;;;;;;;;;4595562;27;20039;-57
2021/11/14 01:39:36;;;;;;;2.60;2.17;;;;;;;;;;4581804;27;20020;-57
2021/11/14 01:41:46;;;;;;;2.73;2.30;;;;;;;;;;4585330;27;20028;-58
2021/11/14 01:43:57;;;;;;;3.37;2.30;;;;;;;;;;4585062;27;20716;-57
2021/11/14 01:46:08;;;;;;;4.03;2.45;;;;;;;;;;4589884;27;20636;-58
2021/11/14 01:48:19;;;;;;;2.65;2.25;;;;;;;;;;4586654;27;20034;-59
2021/11/14 01:50:32;;;;;;;2.80;2.38;;;;;;;;;;4601520;27;20022;-57
2021/11/14 01:52:44;;;;;;;3.17;2.65;;;;;;;;;;4589028;27;20024;-57
2021/11/14 01:54:55;;;;;;;3.72;2.78;;;;;;;;;;4599858;27;20011;-57
2021/11/14 01:57:05;;;;;;;3.80;2.60;;;;;;;;;;4583794;27;20040;-57
2021/11/14 01:59:16;;;;;;;3.50;2.50;;;;;;;;;;4583071;27;20028;-57
2021/11/14 02:01:32;;;;;;;2.73;2.43;;;;;;;;;;4585021;27;20395;-57
2021/11/14 02:03:48;;;;;;;4.25;2.97;;;;;;;;;;4583339;27;20039;-57
2021/11/14 02:06:00;;;;;;;3.13;2.60;;;;;;;;;;4589064;27;20638;-57
2021/11/14 02:08:11;;;;;;;;;;;;;;;;;;4590026;27;20011;-57
2021/11/14 02:10:23;;;;;;;3.13;2.53;;;;;;;;;;4585635;27;19927;-57
2021/11/14 02:12:33;;;;;;;3.38;2.88;;;;;;;;;;4590239;27;21271;-57
2021/11/14 02:14:44;;;;;;;3.87;2.67;;;;;;;;;;4582332;27;20107;-57
2021/11/14 02:16:55;;;;;;;3.30;2.70;;;;;;;;;;4594491;27;20036;-57
2021/11/14 02:19:06;;;;;;;3.92;2.95;;;;;;;;;;4585836;27;20020;-57
2021/11/14 02:21:17;;;;;;;3.35;2.65;;;;;;;;;;4583833;27;20081;-57
2021/11/14 02:23:27;;;;;;;4.22;3.30;;;;;;;;;;4565870;27;20488;-57
2021/11/14 02:25:38;;;;;;;4.20;3.03;;;;;;;;;;4583410;27;20024;-57
2021/11/14 02:27:52;;;;;;;4.60;3.27;;;;;;;;;;4583407;27;20047;-57
2021/11/14 02:30:06;;;;;;;5.38;3.75;;;;;;;;;;4581880;27;20024;-57
2021/11/14 02:32:16;;;;;;;4.70;3.65;;;;;;;;;;4584344;27;20066;-57
2021/11/14 02:34:27;;;;;;;4.80;3.67;;;;;;;;;;4584456;27;20399;-57
2021/11/14 02:36:38;;;;;;;4.87;3.77;;;;;;;;;;4581614;27;20034;-57
2021/11/14 02:38:50;;;;;;;4.68;3.53;;;;;;;;;;4584709;27;20056;-57
2021/11/14 02:41:00;;;;;;;5.65;3.90;;;;;;;;;;4583336;27;20067;-57
2021/11/14 02:43:12;;;;;;;5.20;3.78;;;;;;;;;;4579789;27;20027;-57
2021/11/14 02:45:24;;;;;;;4.75;3.60;;;;;;;;;;4582367;27;20105;-57
2021/11/14 02:47:36;;;;;;;5.80;4.20;;;;;;;;;;4583547;27;20039;-58
2021/11/14 02:49:46;;;;;;;5.45;4.10;;;;;;;;;;4583287;27;20022;-57
2021/11/14 02:51:56;;;;;;;5.47;4.20;;;;;;;;;;4582360;27;20509;-57
2021/11/14 02:54:07;;;;;;;5.13;3.83;;;;;;;;;;4583783;27;24397;-57
2021/11/14 02:56:18;;;;;;;5.37;4.13;;;;;;;;;;4582498;27;20030;-57
2021/11/14 02:58:28;;;;;;;5.97;4.27;;;;;;;;;;4588683;27;20086;-57
2021/11/14 03:00:44;;;;;;;6.17;4.30;;;;;;;;;;4584177;27;20098;-57
2021/11/14 03:02:55;;;;;;;5.28;4.00;;;;;;;;;;4582499;27;20097;-57
2021/11/14 03:05:15;;;;;;;5.78;4.13;;;;;;;;;;4585852;27;20035;-57
2021/11/14 03:07:26;;;;;;;6.57;4.70;;;;;;;;;;4589001;27;20032;-58
2021/11/14 03:09:36;;;;;;;5.63;4.27;;;;;;;;;;4592122;27;20020;-56
2021/11/14 03:11:46;;;;;;;6.23;4.40;;;;;;;;;;4587505;27;20114;-57
2021/11/14 03:13:57;;;;;;;5.87;4.30;;;;;;;;;;4587523;27;20074;-57
2021/11/14 03:16:11;;;;;;;7.10;4.93;;;;;;;;;;4586869;27;20030;-57
2021/11/14 03:18:22;;;;;;;6.25;4.40;;;;;;;;;;4586854;27;20620;-57
2021/11/14 03:20:35;;;;;;;7.10;4.80;;;;;;;;;;4585928;27;20590;-57
2021/11/14 03:22:46;;;;;;;6.43;4.40;;;;;;;;;;4591527;27;20590;-57
2021/11/14 03:24:56;;;;;;;6.70;4.90;;;;;;;;;;4586360;27;20019;-57
2021/11/14 03:27:07;;;;;;;6.63;4.40;;;;;;;;;;4585959;27;31568;-57
2021/11/14 03:29:17;;;;;;;6.93;4.57;;;;;;;;;;4586855;27;20074;-57
2021/11/14 03:31:28;;;;;;;6.57;4.50;;;;;;;;;;4586206;27;20027;-57
2021/11/14 03:33:39;;;;;;;7.57;5.20;;;;;;;;;;4590709;27;20126;-57
2021/11/14 03:35:54;;;;;;;7.37;4.90;;;;;;;;;;4586015;27;20028;-57
2021/11/14 03:38:04;;;;;;;6.82;4.90;;;;;;;;;;4604270;27;20066;-57
2021/11/14 03:40:16;;;;;;;7.10;4.77;;;;;;;;;;4590608;27;20110;-57
2021/11/14 03:42:27;;;;;;;6.97;4.82;;;;;;;;;;4604651;27;20034;-57
2021/11/14 03:44:37;;;;;;;6.73;5.00;;;;;;;;;;4585979;27;20035;-57
2021/11/14 03:46:48;;;;;;;6.93;4.53;;;;;;;;;;4591936;27;20108;-57
2021/11/14 03:48:58;;;;;;;6.33;4.63;;;;;;;;;;4585800;27;23714;-57
2021/11/14 03:51:10;;;;;;;6.57;4.60;;;;;;;;;;4589418;27;20027;-57
2021/11/14 03:53:20;;;;;;;;;;;;;;;;;;4591449;27;20114;-57
2021/11/14 03:55:32;;;;;;;5.68;3.95;;;;;;;;;;4589070;27;19908;-57
2021/11/14 03:57:44;;;;;;;7.47;4.60;;;;;;;;;;4585561;27;20039;-57
2021/11/14 03:59:55;;;;;;;7.10;5.03;;;;;;;;;;4586868;27;20125;-57
2021/11/14 04:02:05;;;;;;;6.17;4.30;;;;;;;;;;4586988;27;20038;-57
2021/11/14 04:04:15;;;;;;;7.20;4.90;;;;;;;;;;4589609;27;20031;-58
2021/11/14 04:06:26;;;;;;;6.17;4.17;;;;;;;;;;4585813;27;26738;-57
2021/11/14 04:08:37;;;;;;;7.00;4.90;;;;;;;;;;4585411;27;20028;-57
2021/11/14 04:10:50;;;;;;;6.13;4.23;;;;;;;;;;4588854;27;20036;-57
2021/11/14 04:13:00;;;;;;;7.70;5.05;;;;;;;;;;4588068;27;20475;-57
2021/11/14 04:15:13;;;;;;;6.63;4.50;;;;;;;;;;4595647;27;20600;-57
2021/11/14 04:17:23;;;;;;;5.82;4.22;;;;;;;;;;4585620;27;20081;-57
2021/11/14 04:19:34;;;;;;;6.73;4.97;;;;;;;;;;4582605;27;20596;-57
2021/11/14 04:21:45;;;;;;;6.47;4.37;;;;;;;;;;4585781;27;20063;-57
2021/11/14 04:23:55;;;;;;;6.60;4.50;;;;;;;;;;4589856;27;20502;-58
2021/11/14 04:26:07;;;;;;;7.50;5.00;;;;;;;;;;4556559;27;20031;-57
2021/11/14 04:28:18;;;;;;;7.25;4.85;;;;;;;;;;4590237;27;20019;-57
2021/11/14 04:30:29;;;;;;;;;;;;;;;;;;4585991;27;20116;-58
2021/11/14 04:32:39;;;;;;;7.65;5.00;;;;;;;;;;4586616;27;19933;-57
2021/11/14 04:34:49;;;;;;;6.30;4.50;;;;;;;;;;4585153;27;20016;-57
2021/11/14 04:37:00;;;;;;;6.97;4.80;;;;;;;;;;4585287;27;20044;-57
2021/11/14 04:39:10;;;;;;;7.13;4.73;;;;;;;;;;4585003;27;20074;-57
2021/11/14 04:41:21;;;;;;;5.93;4.47;;;;;;;;;;4588640;27;25652;-57
2021/11/14 04:43:31;;;;;;;7.33;4.67;;;;;;;;;;4586825;27;20407;-57
2021/11/14 04:45:42;;;;;;;6.63;4.57;;;;;;;;;;4584728;27;20024;-57
2021/11/14 04:47:52;;;;;;;7.37;4.93;;;;;;;;;;4587722;27;25341;-57
2021/11/14 04:50:06;;;;;;;6.40;4.50;;;;;;;;;;4586105;27;20751;-57
2021/11/14 04:52:16;;;;;;;6.25;4.38;;;;;;;;;;4589505;27;20030;-58
2021/11/14 04:54:27;;;;;;;7.37;4.83;;;;;;;;;;4567781;27;20027;-57
2021/11/14 04:56:37;;;;;;;6.00;4.50;;;;;;;;;;4582939;27;20026;-57
2021/11/14 04:58:48;;;;;;;6.67;4.63;;;;;;;;;;4584255;27;20035;-57
2021/11/14 05:00:59;;;;;;;6.50;4.67;;;;;;;;;;4585306;27;21949;-57
2021/11/14 05:03:10;;;;;;;6.40;4.43;;;;;;;;;;4587703;27;20031;-57
2021/11/14 05:05:21;;;;;;;;;;;;;;;;;;4586373;27;20024;-57
2021/11/14 05:07:31;;;;;;;6.32;4.38;;;;;;;;;;4584261;27;19904;-57
2021/11/14 05:09:42;;;;;;;5.77;4.40;;;;;;;;;;4583143;27;20028;-57
2021/11/14 05:11:52;;;;;;;5.80;4.40;;;;;;;;;;4585450;27;20031;-57
2021/11/14 05:14:03;;;;;;;6.43;4.40;;;;;;;;;;4584585;27;27238;-57
2021/11/14 05:16:14;;;;;;;5.63;3.93;;;;;;;;;;4586443;27;20028;-57
2021/11/14 05:18:24;;;;;;;5.45;4.00;;;;;;;;;;4585418;27;20043;-57
2021/11/14 05:20:35;;;;;;;6.27;4.27;;;;;;;;;;4584299;27;20038;-57
2021/11/14 05:22:45;;;;;;;5.70;4.50;;;;;;;;;;4583307;27;20025;-57
2021/11/14 05:24:56;;;;;;;5.67;3.97;;;;;;;;;;4584809;27;20484;-57
2021/11/14 05:27:06;;;;;;;5.17;3.90;;;;;;;;;;4585045;27;20169;-57
2021/11/14 05:29:17;;;;;;;6.30;4.30;;;;;;;;;;4583682;27;20032;-57
2021/11/14 05:31:27;;;;;;;6.13;4.50;;;;;;;;;;4585012;27;20036;-57
2021/11/14 05:33:38;;;;;;;6.10;4.30;;;;;;;;;;4584119;27;20055;-57
2021/11/14 05:35:48;;;;;;;6.13;4.60;;;;;;;;;;4585415;27;20122;-58
2021/11/14 05:37:59;;;;;;;6.40;4.50;;;;;;;;;;4585381;27;20085;-57
2021/11/14 05:40:10;;;;;;;5.80;4.22;;;;;;;;;;4584526;27;20656;-57
2021/11/14 05:42:20;;;;;;;6.47;4.73;;;;;;;;;;4583230;27;20031;-57
2021/11/14 05:44:31;;;;;;;6.47;4.57;;;;;;;;;;4589396;27;20047;-58
2021/11/14 05:46:41;;;;;;;6.87;4.70;;;;;;;;;;4584179;27;20047;-58
2021/11/14 05:48:51;;;;;;;6.53;4.80;;;;;;;;;;4584808;27;20081;-58
2021/11/14 05:51:02;;;;;;;6.13;4.53;;;;;;;;;;4583312;27;29795;-58
2021/11/14 05:53:13;;;;;;;7.27;5.07;;;;;;;;;;4584217;27;20077;-58
2021/11/14 05:55:24;;;;;;;6.20;4.38;;;;;;;;;;4583502;27;20143;-62
2021/11/14 05:57:45;;;;;;;6.97;5.00;;;;;;;;;;4584142;27;20496;-58
2021/11/14 06:04:38;;;;;;;6.72;4.53;;;;;;;;;;4600116;27;20146;-58
2021/11/14 06:06:48;;;;;;;6.68;4.55;;;;;;;;;;4569926;27;20026;-58
2021/11/14 06:08:59;;;;;;;6.88;4.70;;;;;;;;;;4581624;27;20039;-58
2021/11/14 06:11:09;;;;;;;5.83;4.03;;;;;;;;;;4583495;27;20592;-58
2021/11/14 06:13:25;;;;;;;5.47;3.90;;;;;;;;;;4582620;27;20075;-58
2021/11/14 06:15:36;;;;;;;5.63;4.18;;;;;;;;;;4589659;27;20027;-58
2021/11/14 06:17:47;;;;;;;6.07;4.10;;;;;;;;;;4583533;27;20459;-58
2021/11/14 06:19:57;;;;;;;5.33;3.90;;;;;;;;;;4582912;27;20115;-57
2021/11/14 06:22:07;;;;;;;7.07;4.67;;;;;;;;;;4565984;27;20265;-57
2021/11/14 06:24:18;;;;;;;5.20;3.90;;;;;;;;;;4582425;27;22753;-60
2021/11/14 06:26:29;;;;;;;5.57;4.00;;;;;;;;;;4584026;27;31098;-57
2021/11/14 06:28:39;;;;;;;6.03;3.97;;;;;;;;;;4584281;27;27406;-58
2021/11/14 06:30:50;;;;;;;5.57;4.03;;;;;;;;;;4583411;27;20549;-57
2021/11/14 06:33:00;;;;;;;6.90;4.90;;;;;;;;;;4582821;27;20074;-58
2021/11/14 06:35:11;;;;;;;5.87;4.23;;;;;;;;;;4583812;27;20039;-58
2021/11/14 06:37:22;;;;;;;7.15;5.03;;;;;;;;;;4584265;27;20039;-58
2021/11/14 06:39:33;;;;;;;6.53;4.27;;;;;;;;;;4584360;27;20024;-58
2021/11/14 06:41:43;;;;;;;6.43;4.40;;;;;;;;;;4585520;27;20321;-58
2021/11/14 06:43:53;;;;;;;6.47;4.40;;;;;;;;;;4589150;27;20039;-59
2021/11/14 06:46:04;;;;;;;6.00;4.30;;;;;;;;;;4586311;27;20543;-58
2021/11/14 06:48:14;;;;;;;6.37;4.60;;;;;;;;;;4589081;27;20027;-57
2021/11/14 06:50:25;;;;;;;6.53;4.70;;;;;;;;;;4588470;27;20179;-58
2021/11/14 06:52:35;;;;;;;5.57;4.30;;;;;;;;;;4590684;27;20024;-58
2021/11/14 06:54:46;;;;;;;6.00;4.53;;;;;;;;;;4586876;27;20051;-59
2021/11/14 06:56:57;;;;;;;6.07;4.50;;;;;;;;;;4585288;27;20070;-58
2021/11/14 06:59:08;;;;;;;6.50;4.60;;;;;;;;;;4584226;27;20022;-58
2021/11/14 07:01:18;;;;;;;6.70;4.87;;;;;;;;;;4586206;27;20026;-58
2021/11/14 07:03:28;;;;;;;7.33;5.20;;;;;;;;;;4601265;27;20074;-58
2021/11/14 07:05:39;;;;;;;7.07;5.00;;;;;;;;;;4585064;27;20027;-58
2021/11/14 07:07:50;;;;;;;5.90;4.80;;;;;;;;;;4585810;27;20020;-58
2021/11/14 07:10:00;;;;;;;6.70;4.83;;;;;;;;;;4584666;27;20506;-57
2021/11/14 07:12:11;;;;;;;7.23;5.33;;;;;;;;;;4580951;27;20031;-58
2021/11/14 07:14:23;;;;;;;6.93;4.83;;;;;;;;;;4590269;27;20031;-58
2021/11/14 07:16:34;;;;;;;7.10;5.30;;;;;;;;;;4586012;27;20139;-58
2021/11/14 07:18:45;;;;;;;6.95;5.00;;;;;;;;;;4586772;27;20053;-57
2021/11/14 07:20:55;;;;;;;6.80;4.93;;;;;;;;;;4585628;27;20479;-57
2021/11/14 07:23:06;;;;;;;7.30;5.37;;;;;;;;;;4588211;27;20011;-57
2021/11/14 07:25:19;;;;;;;6.20;4.67;;;;;;;;;;4585531;27;20031;-58
2021/11/14 07:27:29;;;;;;;7.47;5.20;;;;;;;;;;4583948;27;20027;-58
2021/11/14 07:29:40;;;;;;;6.77;5.10;;;;;;;;;;4585546;27;20028;-57
2021/11/14 07:31:51;;;;;;;7.28;5.43;;;;;;;;;;4586951;27;20152;-58
2021/11/14 07:34:01;;;;;;;6.40;4.63;;;;;;;;;;4573468;27;20040;-57
2021/11/14 07:36:12;;;;;;;6.37;4.43;;;;;;;;;;4583026;27;20035;-58
2021/11/14 07:38:22;;;;;;;7.00;5.40;;;;;;;;;;4585930;27;20075;-58
2021/11/14 07:40:33;;;;;;;6.67;5.07;;;;;;;;;;4584750;27;20023;-58
2021/11/14 07:42:44;;;;;;;6.75;4.70;;;;;;;;;;4601044;27;20016;-57
2021/11/14 07:44:55;;;;;;;6.88;4.95;;;;;;;;;;4586724;27;20756;-58
2021/11/14 07:47:05;;;;;;;7.57;5.20;;;;;;;;;;4583815;27;20031;-58
2021/11/14 07:49:16;;;;;;;7.53;5.00;;;;;;;;;;4585855;27;20055;-58
2021/11/14 07:51:27;;;;;;;7.10;5.00;;;;;;;;;;4589346;27;20028;-57
2021/11/14 07:53:37;;;;;;;8.18;5.18;;;;;;;;;;4583747;27;20032;-58
2021/11/14 07:55:49;;;;;;;7.20;4.90;;;;;;;;;;4585001;27;20453;-58
2021/11/14 07:58:04;;;;;;;7.13;4.93;;;;;;;;;;4587204;27;20083;-58
2021/11/14 08:00:17;;;;;;;6.88;5.18;;;;;;;;;;4586078;27;20028;-57
2021/11/14 08:02:27;;;;;;;7.10;5.20;;;;;;;;;;4584543;27;20561;-57
2021/11/14 08:04:38;;;;;;;6.73;5.13;;;;;;;;;;4585300;27;20451;-58
2021/11/14 08:06:48;;;;;;;7.20;5.20;;;;;;;;;;4585755;27;20103;-58
2021/11/14 08:08:59;;;;;;;6.13;4.73;;;;;;;;;;4583750;27;20685;-58
2021/11/14 08:11:09;;;;;;;6.53;4.90;;;;;;;;;;4587372;27;20032;-58
2021/11/14 08:13:20;;;;;;;7.17;5.30;;;;;;;;;;4588544;27;20028;-58
2021/11/14 08:15:31;;;;;;;6.65;4.95;;;;;;;;;;4586384;27;20024;-57
2021/11/14 08:17:42;;;;;;;6.97;4.97;;;;;;;;;;4586370;27;20603;-58
2021/11/14 08:19:55;;;;;;;6.03;4.73;;;;;;;;;;4585041;27;20164;-58
2021/11/14 08:22:05;;;;;;;7.22;5.20;;;;;;;;;;4585923;27;20016;-58
2021/11/14 08:24:16;;;;;;;6.67;4.90;;;;;;;;;;4586495;27;20073;-58
2021/11/14 08:26:26;;;;;;;7.03;5.07;;;;;;;;;;4587574;27;20480;-58
2021/11/14 08:28:37;;;;;;;7.70;5.37;;;;;;;;;;4586097;27;20472;-57
2021/11/14 08:30:47;;;;;;;8.00;5.67;;;;;;;;;;4584455;27;20020;-58
2021/11/14 08:32:58;;;;;;;7.63;5.27;;;;;;;;;;4585193;27;20552;-57
2021/11/14 08:35:09;;;;;;;7.17;5.20;;;;;;;;;;4582458;27;20028;-58
2021/11/14 08:37:20;;;;;;;7.75;5.82;;;;;;;;;;4586009;27;20043;-58
2021/11/14 08:39:30;;;;;;;8.10;5.18;;;;;;;;;;4584947;27;20024;-58
2021/11/14 08:41:41;;;;;;;8.27;6.13;;;;;;;;;;4585885;27;20016;-58
2021/11/14 08:43:51;;;;;;;8.33;5.83;;;;;;;;;;4585850;27;20501;-58
2021/11/14 08:46:04;;;;;;;7.80;5.67;;;;;;;;;;4583732;27;20035;-58
2021/11/14 08:48:14;;;;;;;7.30;5.38;;;;;;;;;;4582345;27;20652;-58
2021/11/14 08:50:26;;;;;;;7.23;5.43;;;;;;;;;;4593815;27;20149;-58
2021/11/14 08:52:37;;;;;;;7.78;5.57;;;;;;;;;;4586507;27;20596;-58
2021/11/14 08:54:47;;;;;;;7.30;5.37;;;;;;;;;;4587064;27;20028;-57
2021/11/14 08:56:58;;;;;;;8.53;6.13;;;;;;;;;;4585441;27;20044;-57
2021/11/14 08:59:09;;;;;;;8.70;5.83;;;;;;;;;;4587498;27;20024;-57
2021/11/14 09:01:19;;;;;;;8.13;5.63;;;;;;;;;;4586796;27;20080;-57
2021/11/14 09:03:30;;;;;;;8.80;5.97;;;;;;;;;;4583576;27;20292;-57
2021/11/14 09:05:42;;;;;;;8.20;5.72;;;;;;;;;;4586285;27;20023;-57
2021/11/14 09:07:53;;;;;;;8.07;5.90;;;;;;;;;;4586806;27;20028;-57
2021/11/14 09:10:04;;;;;;;8.48;5.70;;;;;;;;;;4585016;27;20564;-57
2021/11/14 09:12:15;;;;;;;9.25;6.30;;;;;;;;;;4583422;27;20096;-57
2021/11/14 09:15:33;;;;;;;8.20;6.07;;;;;;;;;;4611577;27;20941;-56
2021/11/14 09:17:44;;;;;;;8.23;6.00;;;;;;;;;;4628385;27;20180;-57
2021/11/14 09:19:55;;;;;;;8.35;6.10;;;;;;;;;;4613864;27;20814;-59
2021/11/14 09:22:05;;;;;;;9.17;6.60;;;;;;;;;;4617829;27;20111;-59
2021/11/14 09:24:16;;;;;;;9.00;6.30;;;;;;;;;;4613868;27;20081;-59
2021/11/14 09:26:26;;;;;;;8.67;6.10;;;;;;;;;;4633098;27;20134;-60
2021/11/14 09:28:37;;;;;;;8.57;6.13;;;;;;;;;;4623938;27;20043;-59
2021/11/14 09:30:50;;;;;;;7.97;5.83;;;;;;;;;;4634296;27;20039;-59
2021/11/14 09:33:01;;;;;;;8.77;5.63;;;;;;;;;;4632203;27;20558;-57
2021/11/14 09:35:12;;;;;;;8.07;5.63;;;;;;;;;;4614347;27;20043;-58
2021/11/14 09:37:23;;;;;;;7.63;5.63;;;;;;;;;;4615022;27;20484;-56
2021/11/14 09:39:33;;;;;;;7.70;5.53;;;;;;;;;;4616504;27;20499;-57
2021/11/14 09:41:46;;;;;;;8.37;5.80;;;;;;;;;;4613941;27;20046;-57
2021/11/14 09:43:57;;;;;;;7.50;4.97;;;;;;;;;;4630027;27;20880;-56
2021/11/14 09:46:07;;;;;;;8.37;5.70;;;;;;;;;;4615989;27;20084;-57
2021/11/14 09:48:20;;;;;;;8.67;6.43;;;;;;;;;;4633382;27;20027;-56
2021/11/14 09:50:31;;;;;;;7.55;5.45;;;;;;;;;;4634217;27;20031;-57
2021/11/14 09:52:41;;;;;;;8.00;5.63;;;;;;;;;;4617842;27;20674;-58
2021/11/14 09:54:52;;;;;;;7.43;5.30;;;;;;;;;;4633204;27;20431;-58
2021/11/14 09:57:03;;;;;;;8.07;5.83;;;;;;;;;;4632200;27;20026;-57
2021/11/14 09:59:14;;;;;;;7.95;5.65;;;;;;;;;;4610095;27;20035;-57
2021/11/14 10:01:24;;;;;;;7.57;5.38;;;;;;;;;;4616808;27;21188;-58
2021/11/14 10:03:35;;;;;;;7.30;4.97;;;;;;;;;;4629031;27;20034;-58
2021/11/14 10:05:48;;;;;;;7.23;5.30;;;;;;;;;;4631136;27;20038;-58
2021/11/14 10:08:03;;;;;;;8.88;5.93;;;;;;;;;;4622912;27;20031;-58
2021/11/14 10:10:14;;;;;;;7.50;5.43;;;;;;;;;;4612076;27;20118;-58
2021/11/14 10:12:27;;;;;;;7.03;5.30;;;;;;;;;;4630868;27;23467;-58
2021/11/14 10:14:39;;;;;;;7.30;4.90;;;;;;;;;;4629188;27;20039;-58
2021/11/14 10:16:50;;;;;;;8.55;5.70;;;;;;;;;;4631838;27;20809;-58
2021/11/14 10:19:03;;;;;;;6.87;5.03;;;;;;;;;;4613470;27;20425;-58
2021/11/14 10:21:15;;;;;;;7.20;5.05;;;;;;;;;;4615118;27;21013;-58
2021/11/14 10:23:25;;;;;;;6.20;4.72;;;;;;;;;;4630753;27;20592;-58
2021/11/14 10:25:37;;;;;;;7.10;4.95;;;;;;;;;;4606999;27;20539;-58
2021/11/14 10:27:53;;;;;;;6.65;4.70;;;;;;;;;;4620586;27;20037;-58
2021/11/14 10:30:07;;;;;;;6.80;4.93;;;;;;;;;;4619721;27;20042;-58
2021/11/14 10:32:17;;;;;;;6.32;4.60;;;;;;;;;;4620330;27;20095;-58
2021/11/14 10:34:28;;;;;;;6.80;4.97;;;;;;;;;;4619576;27;20503;-58
2021/11/14 10:36:38;;;;;;;6.43;4.70;;;;;;;;;;4603640;27;20035;-58
2021/11/14 10:38:49;;;;;;;5.93;4.40;;;;;;;;;;4618570;27;20070;-58
2021/11/14 10:41:03;;;;;;;6.15;4.50;;;;;;;;;;4600892;27;20038;-58
2021/11/14 10:43:17;;;;;;;5.95;4.60;;;;;;;;;;4600450;27;20099;-58
2021/11/14 10:45:30;;;;;;;6.47;4.53;;;;;;;;;;4604049;27;21927;-58
2021/11/14 10:47:40;;;;;;;6.80;4.97;;;;;;;;;;4618267;27;20031;-58
2021/11/14 10:49:57;;;;;;;7.17;4.80;;;;;;;;;;4601987;27;20035;-58
2021/11/14 10:52:07;;;;;;;7.22;4.97;;;;;;;;;;4619547;27;20022;-58
2021/11/14 10:54:26;;;;;;;7.15;4.95;;;;;;;;;;4619284;27;20047;-58
2021/11/14 10:56:38;;;;;;;8.07;6.15;;;;;;;;;;4598471;27;20134;-58
2021/11/14 10:58:52;;;;;;;8.45;5.68;;;;;;;;;;4598211;27;20059;-58
2021/11/14 11:01:05;;;;;;;7.85;5.65;;;;;;;;;;4602994;27;20606;-58
2021/11/14 11:03:16;;;;;;;7.97;5.30;;;;;;;;;;4620003;27;20082;-58
2021/11/14 11:05:28;;;;;;;7.77;5.53;;;;;;;;;;4584776;27;20032;-58
2021/11/14 11:07:50;;;;;;;8.23;6.03;;;;;;;;;;4617741;27;20059;-58
2021/11/14 11:10:01;;;;;;;7.43;5.43;;;;;;;;;;4600421;27;20031;-58
2021/11/14 11:12:20;;;;;;;7.87;5.70;;;;;;;;;;4600382;27;20032;-58
2021/11/14 11:14:31;;;;;;;9.40;6.28;;;;;;;;;;4601238;27;20776;-58
2021/11/14 11:16:42;;;;;;;8.60;5.80;;;;;;;;;;4619159;27;20035;-58
2021/11/14 11:19:01;;;;;;;8.13;5.87;;;;;;;;;;4618743;27;21124;-58
2021/11/14 11:21:13;;;;;;;8.10;5.55;;;;;;;;;;4618220;27;20601;-58
2021/11/14 11:23:25;;;;;;;8.20;5.57;;;;;;;;;;4621135;27;20080;-58
2021/11/14 11:25:46;;;;;;;8.23;6.00;;;;;;;;;;4603641;27;20028;-58
2021/11/14 11:27:57;;;;;;;8.63;6.13;;;;;;;;;;4599751;27;20085;-58
2021/11/14 11:30:08;;;;;;;8.07;5.75;;;;;;;;;;4619192;27;20079;-58
2021/11/14 11:32:18;;;;;;;9.05;6.50;;;;;;;;;;4618899;27;20038;-59
2021/11/14 11:34:29;;;;;;;10.30;7.60;;;;;;;;;;4619529;27;20047;-58
2021/11/14 11:36:39;;;;;;;9.83;6.57;;;;;;;;;;4603400;27;20039;-58
2021/11/14 11:38:50;;;;;;;8.20;5.90;;;;;;;;;;4599753;27;20061;-58
2021/11/14 11:41:02;;;;;;;8.43;6.17;;;;;;;;;;4618712;27;20034;-59
2021/11/14 11:43:13;;;;;;;8.82;6.03;;;;;;;;;;4618210;27;20042;-59
2021/11/14 11:45:34;;;;;;;8.97;6.67;;;;;;;;;;4600393;27;20031;-58
2021/11/14 11:47:45;;;;;;;9.25;6.32;;;;;;;;;;4586028;27;20036;-59
2021/11/14 11:49:57;;;;;;;8.73;6.45;;;;;;;;;;4601443;27;20071;-58
2021/11/14 11:52:17;;;;;;;9.60;6.63;;;;;;;;;;4603373;27;20054;-58
2021/11/14 11:54:32;;;;;;;9.35;6.53;;;;;;;;;;4618215;27;20039;-59
2021/11/14 11:56:55;;;;;;;8.73;6.03;;;;;;;;;;4604962;27;20100;-59
2021/11/14 11:59:20;;;;;;;9.05;6.53;;;;;;;;;;4619920;27;20043;-59
2021/11/14 12:01:32;;;;;;;8.88;6.15;;;;;;;;;;4606752;27;20035;-59
2021/11/14 12:03:43;;;;;;;9.63;6.45;;;;;;;;;;4600502;27;20023;-58
2021/11/14 12:05:53;;;;;;;9.30;6.73;;;;;;;;;;4616989;27;20450;-59
2021/11/14 12:08:12;;;;;;;10.37;6.97;;;;;;;;;;4620111;27;20023;-59
2021/11/14 12:10:28;;;;;;;9.45;6.72;;;;;;;;;;4619449;27;20039;-59
2021/11/14 12:12:54;;;;;;;9.80;6.75;;;;;;;;;;4593867;27;20027;-59
2021/11/14 12:15:15;;;;;;;9.82;6.75;;;;;;;;;;4618808;27;20050;-59
2021/11/14 12:17:26;;;;;;;9.75;6.75;;;;;;;;;;4619221;27;20622;-58
2021/11/14 12:19:40;;;;;;;9.83;7.03;;;;;;;;;;4598363;27;20043;-59
2021/11/14 12:22:00;;;;;;;10.15;7.00;;;;;;;;;;4602397;27;20151;-59
2021/11/14 12:24:11;;;;;;;10.13;7.30;;;;;;;;;;4619087;27;20034;-59
2021/11/14 12:26:28;;;;;;;9.45;6.60;;;;;;;;;;4617294;27;20046;-59
2021/11/14 12:28:41;;;;;;;10.25;7.35;;;;;;;;;;4609433;27;20042;-59
2021/11/14 12:33:26;;;;;;;10.00;7.07;;;;;;;;;;4619348;27;20035;-59
2021/11/14 12:35:43;;;;;;;8.52;6.20;;;;;;;;;;4602053;27;20039;-59
2021/11/14 12:38:01;;;;;;;8.85;6.13;;;;;;;;;;4615919;27;20027;-59
2021/11/14 12:40:15;;;;;;;9.27;6.65;;;;;;;;;;4607638;27;20035;-59
2021/11/14 12:42:27;;;;;;;9.10;6.70;;;;;;;;;;4602595;27;20080;-59
2021/11/14 12:44:45;;;;;;;8.82;6.22;;;;;;;;;;4618375;27;20570;-59
2021/11/14 12:46:57;;;;;;;9.73;6.72;;;;;;;;;;4618004;27;20035;-59
2021/11/14 12:49:10;;;;;;;7.90;6.15;;;;;;;;;;4619777;27;20031;-60
2021/11/14 12:51:26;;;;;;;8.27;6.00;;;;;;;;;;4609341;27;20158;-59
2021/11/14 12:53:52;;;;;;;7.45;5.60;;;;;;;;;;4616789;27;20031;-59
2021/11/14 12:56:12;;;;;;;8.88;5.90;;;;;;;;;;4620152;27;20071;-58
2021/11/14 12:58:31;;;;;;;8.30;5.72;;;;;;;;;;4618621;27;20310;-59
2021/11/14 13:00:43;;;;;;;7.45;5.47;;;;;;;;;;4597078;27;20034;-59
2021/11/14 13:02:54;;;;;;;7.85;6.03;;;;;;;;;;4617362;27;20603;-59
2021/11/14 13:05:09;;;;;;;7.07;5.20;;;;;;;;;;4598513;27;20039;-57
2021/11/14 13:07:26;;;;;;;8.07;5.55;;;;;;;;;;4617326;27;20069;-57
2021/11/14 13:09:46;;;;;;;8.27;5.82;;;;;;;;;;4597400;27;20043;-58
2021/11/14 13:12:06;;;;;;;7.82;5.80;;;;;;;;;;4615787;27;20022;-59
2021/11/14 13:14:18;;;;;;;8.48;6.07;;;;;;;;;;4607939;27;20514;-57
2021/11/14 13:16:29;;;;;;;8.35;5.90;;;;;;;;;;4617451;27;20030;-58
2021/11/14 13:18:39;;;;;;;8.17;5.70;;;;;;;;;;4615715;27;21279;-58